Time;durP1;ratioP1;P1;durP2;ratioP2;P2;SDS_P1;SDS_P2;PMS_P1;PMS_P2;Temp;Humidity;BMP_temperature;BMP_pressure;BME280_temperature;BME280_humidity;BME280_pressure;Samples;Min_cycle;Max_cycle;Signal;HPM_P1;HPM_P2
2023/07/06 00:00:14;;;;;;;;;;;13.10;99.90;;;;;;5113589;28;19943;-39
2023/07/06 00:02:39;;;;;;;;;;;13.10;99.90;;;;;;5112731;28;19998;-40
2023/07/06 00:05:05;;;;;;;;;;;13.10;99.90;;;;;;5113420;28;19918;-39
2023/07/06 00:07:31;;;;;;;;;;;13.10;99.90;;;;;;5113336;28;19908;-39
2023/07/06 00:09:56;;;;;;;;;;;13.20;99.90;;;;;;5111876;28;19916;-39
2023/07/06 00:12:22;;;;;;;;;;;13.10;99.90;;;;;;5113399;28;19951;-39
2023/07/06 00:14:50;;;;;;;;;;;13.10;99.90;;;;;;5113440;28;19908;-39
2023/07/06 00:17:16;;;;;;;;;;;13.10;99.90;;;;;;5112572;28;19911;-39
2023/07/06 00:19:42;;;;;;;;;;;13.10;99.90;;;;;;5098333;28;20351;-39
2023/07/06 00:22:09;;;;;;;;;;;13.10;99.90;;;;;;5092805;28;19908;-39
2023/07/06 00:24:35;;;;;;;;;;;13.10;99.90;;;;;;5092201;28;19909;-39
2023/07/06 00:27:01;;;;;;;;;;;13.10;99.90;;;;;;5092922;28;19908;-40
2023/07/06 00:29:33;;;;;;;;;;;13.10;99.90;;;;;;5092863;28;19908;-39
2023/07/06 00:32:15;;;;;;;;;;;13.10;99.90;;;;;;5092276;28;20157;-39
2023/07/06 00:34:44;;;;;;;;;;;13.10;99.90;;;;;;5092771;28;19915;-39
2023/07/06 00:37:10;;;;;;;;;;;13.10;99.90;;;;;;5091882;28;19912;-39
2023/07/06 00:39:36;;;;;;;;;;;13.00;99.90;;;;;;5092570;28;19966;-40
2023/07/06 00:42:05;;;;;;;;;;;13.10;99.90;;;;;;5092654;28;19912;-40
2023/07/06 00:44:47;;;;;;;;;;;13.00;99.90;;;;;;5091919;28;19931;-39
2023/07/06 00:47:13;;;;;;;;;;;13.00;99.90;;;;;;5108353;28;19941;-39
2023/07/06 00:49:39;;;;;;;;;;;13.00;99.90;;;;;;5113210;28;20371;-39
2023/07/06 00:52:05;;;;;;;;;;;13.00;99.90;;;;;;5112068;28;20406;-40
2023/07/06 00:54:31;;;;;;;;;;;13.00;99.90;;;;;;5111262;28;19943;-40
2023/07/06 00:56:57;;;;;;;;;;;12.90;99.90;;;;;;5092549;28;19912;-40
2023/07/06 00:59:26;;;;;;;;;;;12.90;99.90;;;;;;5102297;28;19916;-39
2023/07/06 01:01:52;;;;;;;;;;;12.90;99.90;;;;;;5112694;28;19934;-39
2023/07/06 01:04:18;;;;;;;;;;;12.90;99.90;;;;;;5112562;28;20429;-38
2023/07/06 01:06:47;;;;;;;;;;;12.90;99.90;;;;;;5111569;28;19911;-40
2023/07/06 01:09:14;;;;;;;;;;;12.90;99.90;;;;;;5112722;28;19939;-39
2023/07/06 01:11:41;;;;;;;;;;;12.90;99.90;;;;;;5112522;28;19915;-39
2023/07/06 01:14:13;;;;;;;;;;;12.80;99.90;;;;;;5111745;28;19911;-39
2023/07/06 01:16:54;;;;;;;;;;;12.80;99.90;;;;;;5112581;28;19991;-39
2023/07/06 01:19:36;;;;;;;;;;;12.80;99.90;;;;;;5111299;28;20268;-41
2023/07/06 01:22:02;;;;;;;;;;;12.80;99.90;;;;;;5112435;28;19912;-39
2023/07/06 01:24:30;;;;;;;;;;;12.80;99.90;;;;;;5112485;28;19908;-40
2023/07/06 01:27:07;;;;;;;;;;;12.80;99.90;;;;;;5111779;28;19951;-39
2023/07/06 01:29:36;;;;;;;;;;;12.70;99.90;;;;;;5112680;28;19908;-39
2023/07/06 01:32:03;;;;;;;;;;;12.70;99.90;;;;;;5112500;28;20342;-39
2023/07/06 01:34:42;;;;;;;;;;;12.70;99.90;;;;;;5112064;28;19912;-40
2023/07/06 01:37:19;;;;;;;;;;;12.70;99.90;;;;;;5111976;28;20386;-39
2023/07/06 01:39:44;;;;;;;;;;;12.70;99.90;;;;;;5112415;28;20113;-39
2023/07/06 01:42:12;;;;;;;;;;;12.60;99.90;;;;;;5111759;28;20078;-40
2023/07/06 01:44:40;;;;;;;;;;;12.60;99.90;;;;;;5112632;28;19915;-39
2023/07/06 01:47:06;;;;;;;;;;;12.50;99.90;;;;;;5115445;28;19907;-39
2023/07/06 01:49:33;;;;;;;;;;;12.60;99.90;;;;;;5116224;28;19915;-39
2023/07/06 01:52:04;;;;;;;;;;;12.60;99.90;;;;;;5116053;28;20049;-39
2023/07/06 01:54:35;;;;;;;;;;;12.50;99.90;;;;;;5115548;28;19912;-40
2023/07/06 01:57:07;;;;;;;;;;;12.50;99.90;;;;;;5116026;28;19954;-40
2023/07/06 01:59:35;;;;;;;;;;;12.50;99.90;;;;;;5116075;28;19915;-40
2023/07/06 02:02:01;;;;;;;;;;;12.50;99.90;;;;;;5114976;28;19914;-40
2023/07/06 02:04:31;;;;;;;;;;;12.40;99.90;;;;;;5115960;28;19961;-40
2023/07/06 02:07:00;;;;;;;;;;;12.50;99.90;;;;;;5115804;28;19908;-39
2023/07/06 02:09:26;;;;;;;;;;;12.50;99.90;;;;;;5114951;28;19908;-40
2023/07/06 02:11:52;;;;;;;;;;;12.40;99.90;;;;;;5115837;28;20315;-40
2023/07/06 02:14:19;;;;;;;;;;;12.40;99.90;;;;;;5115522;28;20316;-39
2023/07/06 02:16:44;;;;;;;;;;;12.40;99.90;;;;;;5114824;28;20014;-39
2023/07/06 02:19:10;;;;;;;;;;;12.40;99.90;;;;;;5114958;28;20330;-39
2023/07/06 02:21:36;;;;;;;;;;;12.40;99.90;;;;;;5113939;28;19912;-39
2023/07/06 02:24:02;;;;;;;;;;;12.40;99.90;;;;;;5114118;28;19954;-40
2023/07/06 02:26:27;;;;;;;;;;;12.40;99.90;;;;;;5115386;28;19950;-39
2023/07/06 02:28:53;;;;;;;;;;;12.50;99.90;;;;;;5115333;28;20282;-39
2023/07/06 02:31:18;;;;;;;;;;;12.50;99.90;;;;;;5114488;28;19912;-40
2023/07/06 02:33:44;;;;;;;;;;;12.50;99.90;;;;;;5115232;28;19930;-39
2023/07/06 02:36:11;;;;;;;;;;;12.50;99.90;;;;;;5115082;28;19911;-39
2023/07/06 02:38:37;;;;;;;;;;;12.60;99.90;;;;;;5114048;28;19911;-39
2023/07/06 02:41:05;;;;;;;;;;;12.60;99.90;;;;;;5106747;28;19915;-39
2023/07/06 02:43:31;;;;;;;;;;;12.60;99.90;;;;;;5114155;28;19916;-39
2023/07/06 02:45:57;;;;;;;;;;;12.60;99.90;;;;;;5115050;28;19934;-39
2023/07/06 02:48:24;;;;;;;;;;;12.60;99.90;;;;;;5114958;28;19912;-39
2023/07/06 02:50:50;;;;;;;;;;;12.60;99.90;;;;;;5114129;28;19919;-39
2023/07/06 02:53:16;;;;;;;;;;;12.60;99.90;;;;;;5114862;28;20381;-39
2023/07/06 02:55:44;;;;;;;;;;;12.60;99.90;;;;;;5114788;28;19908;-39
2023/07/06 02:58:09;;;;;;;;;;;12.60;99.90;;;;;;5112672;28;19908;-40
2023/07/06 03:00:35;;;;;;;;;;;12.60;99.90;;;;;;5114765;28;19929;-39
2023/07/06 03:03:01;;;;;;;;;;;12.60;99.90;;;;;;5114678;28;19955;-40
2023/07/06 03:05:26;;;;;;;;;;;12.50;99.90;;;;;;5113864;28;19940;-39
2023/07/06 03:07:52;;;;;;;;;;;12.50;99.90;;;;;;5114614;28;20326;-40
2023/07/06 03:10:19;;;;;;;;;;;12.50;99.90;;;;;;5114419;28;19914;-39
2023/07/06 03:12:45;;;;;;;;;;;12.50;99.90;;;;;;5113729;28;19912;-39
2023/07/06 03:15:11;;;;;;;;;;;12.50;99.90;;;;;;5114279;28;19908;-39
2023/07/06 03:17:38;;;;;;;;;;;12.50;99.90;;;;;;5114379;28;19960;-39
2023/07/06 03:20:24;;;;;;;;;;;12.50;99.90;;;;;;5113592;28;20282;-40
2023/07/06 03:22:51;;;;;;;;;;;12.50;99.90;;;;;;5113482;28;19963;-40
2023/07/06 03:25:21;;;;;;;;;;;12.60;99.90;;;;;;5114035;28;20216;-39
2023/07/06 03:27:47;;;;;;;;;;;12.60;99.90;;;;;;5113092;28;19918;-39
2023/07/06 03:30:14;;;;;;;;;;;12.60;99.90;;;;;;5114161;28;19907;-40
2023/07/06 03:32:40;;;;;;;;;;;12.70;99.90;;;;;;5113470;28;19923;-39
2023/07/06 03:35:08;;;;;;;;;;;12.70;99.90;;;;;;5113733;28;19912;-39
2023/07/06 03:37:33;;;;;;;;;;;12.70;99.90;;;;;;5113663;28;20285;-39
2023/07/06 03:39:59;;;;;;;;;;;12.80;99.90;;;;;;5105907;28;19920;-39
2023/07/06 03:42:24;;;;;;;;;;;12.80;99.90;;;;;;5097307;28;19926;-39
2023/07/06 03:44:53;;;;;;;;;;;12.80;99.90;;;;;;5106899;28;19916;-40
2023/07/06 03:47:19;;;;;;;;;;;12.80;99.90;;;;;;5111008;28;19954;-39
2023/07/06 03:49:44;;;;;;;;;;;12.80;99.90;;;;;;5110690;28;19912;-39
2023/07/06 03:52:13;;;;;;;;;;;12.90;99.90;;;;;;5112634;28;19916;-39
2023/07/06 03:54:39;;;;;;;;;;;12.90;99.90;;;;;;5112414;28;20028;-39
2023/07/06 03:57:05;;;;;;;;;;;12.90;99.90;;;;;;5113010;28;19933;-40
2023/07/06 03:59:33;;;;;;;;;;;12.90;99.90;;;;;;5113354;28;19968;-39
2023/07/06 04:01:59;;;;;;;;;;;12.90;99.90;;;;;;5112230;28;19908;-40
2023/07/06 04:04:28;;;;;;;;;;;12.90;99.90;;;;;;5112680;28;20286;-41
2023/07/06 04:06:55;;;;;;;;;;;12.90;99.90;;;;;;5110283;28;19912;-39
2023/07/06 04:09:20;;;;;;;;;;;12.90;99.90;;;;;;5111543;28;19911;-41
2023/07/06 04:11:47;;;;;;;;;;;12.90;99.90;;;;;;5112942;28;20337;-39
2023/07/06 04:14:13;;;;;;;;;;;12.90;99.90;;;;;;5113049;28;19995;-40
2023/07/06 04:16:40;;;;;;;;;;;12.90;99.90;;;;;;5111988;28;19959;-39
2023/07/06 04:19:06;;;;;;;;;;;13.00;99.90;;;;;;5112740;28;19908;-40
2023/07/06 04:21:32;;;;;;;;;;;13.00;99.90;;;;;;5112738;28;19961;-39
2023/07/06 04:23:57;;;;;;;;;;;13.00;99.90;;;;;;5111829;28;19919;-40
2023/07/06 04:26:24;;;;;;;;;;;13.00;99.90;;;;;;5112634;28;19915;-40
2023/07/06 04:28:49;;;;;;;;;;;13.00;99.90;;;;;;5112227;28;19907;-40
2023/07/06 04:31:15;;;;;;;;;;;13.00;99.90;;;;;;5112359;28;19912;-40
2023/07/06 04:33:41;;;;;;;;;;;13.10;99.90;;;;;;5112529;28;19947;-39
2023/07/06 04:36:09;;;;;;;;;;;13.10;99.90;;;;;;5112323;28;19907;-40
2023/07/06 04:38:35;;;;;;;;;;;13.10;99.90;;;;;;5112962;28;19953;-40
2023/07/06 04:41:01;;;;;;;;;;;13.10;99.90;;;;;;5113046;28;19915;-40
2023/07/06 04:43:27;;;;;;;;;;;13.20;99.90;;;;;;5112278;28;19945;-39
2023/07/06 04:45:55;;;;;;;;;;;13.20;99.90;;;;;;5113046;28;19911;-40
2023/07/06 04:48:21;;;;;;;;;;;13.20;99.90;;;;;;5107161;28;19912;-39
2023/07/06 04:50:49;;;;;;;;;;;13.20;99.90;;;;;;5112193;28;20379;-39
2023/07/06 04:53:16;;;;;;;;;;;13.30;99.90;;;;;;5113014;28;19907;-40
2023/07/06 04:55:41;;;;;;;;;;;13.30;99.90;;;;;;5112878;28;20057;-40
2023/07/06 04:58:08;;;;;;;;;;;13.30;99.90;;;;;;5111443;28;19998;-39
2023/07/06 05:00:37;;;;;;;;;;;13.40;99.90;;;;;;5112401;28;19918;-40
2023/07/06 05:03:03;;;;;;;;;;;13.30;99.90;;;;;;5112580;28;19916;-39
2023/07/06 05:05:32;;;;;;;;;;;13.30;99.90;;;;;;5112016;28;19919;-40
2023/07/06 05:07:58;;;;;;;;;;;13.30;99.90;;;;;;5112072;28;19915;-40
2023/07/06 05:10:26;;;;;;;;;;;13.40;99.90;;;;;;5112615;28;19965;-40
2023/07/06 05:12:52;;;;;;;;;;;13.40;99.90;;;;;;5111612;28;19911;-39
2023/07/06 05:15:18;;;;;;;;;;;13.40;99.90;;;;;;5112623;28;19965;-40
2023/07/06 05:17:43;;;;;;;;;;;13.40;99.90;;;;;;5112533;28;19914;-39
2023/07/06 05:20:20;;;;;;;;;;;13.40;99.90;;;;;;5113073;28;20010;-39
2023/07/06 05:22:48;;;;;;;;;;;13.40;99.90;;;;;;5116683;28;19951;-41
2023/07/06 05:25:14;;;;;;;;;;;13.40;99.90;;;;;;5114402;28;19912;-40
2023/07/06 05:27:40;;;;;;;;;;;13.40;99.90;;;;;;5107833;28;20413;-40
2023/07/06 05:30:06;;;;;;;;;;;13.40;99.90;;;;;;5101612;28;20006;-40
2023/07/06 05:32:32;;;;;;;;;;;13.40;99.90;;;;;;5083632;28;20266;-40
2023/07/06 05:34:57;;;;;;;;;;;13.50;99.90;;;;;;5103137;28;19923;-40
2023/07/06 05:37:23;;;;;;;;;;;13.50;99.90;;;;;;5094938;28;20320;-40
2023/07/06 05:39:48;;;;;;;;;;;13.60;99.90;;;;;;5093420;28;20386;-39
2023/07/06 05:42:14;;;;;;;;;;;13.60;99.90;;;;;;5099940;28;19915;-40
2023/07/06 05:44:40;;;;;;;;;;;13.60;99.90;;;;;;5095834;28;20447;-39
2023/07/06 05:47:07;;;;;;;;;;;13.70;99.90;;;;;;5095124;28;19908;-40
2023/07/06 05:49:33;;;;;;;;;;;13.70;99.90;;;;;;5095957;28;19950;-39
2023/07/06 05:51:59;;;;;;;;;;;13.80;99.90;;;;;;5108575;28;20026;-40
2023/07/06 05:54:24;;;;;;;;;;;13.80;99.90;;;;;;5115680;28;20573;-40
2023/07/06 05:56:49;;;;;;;;;;;13.90;99.90;;;;;;5116054;28;19912;-39
2023/07/06 05:59:15;;;;;;;;;;;13.90;99.90;;;;;;5096265;28;19909;-40
2023/07/06 06:01:41;;;;;;;;;;;14.00;99.90;;;;;;5094798;28;19908;-40
2023/07/06 06:04:07;;;;;;;;;;;14.00;99.90;;;;;;5095363;28;19959;-39
2023/07/06 06:06:50;;;;;;;;;;;14.10;99.90;;;;;;5095594;28;19915;-39
2023/07/06 06:09:15;;;;;;;;;;;14.20;99.90;;;;;;5115430;27;19912;-39
2023/07/06 06:11:41;;;;;;;;;;;14.20;99.90;;;;;;5113388;28;19949;-40
2023/07/06 06:14:07;;;;;;;;;;;14.30;99.90;;;;;;5115263;28;20326;-39
2023/07/06 06:16:32;;;;;;;;;;;14.30;99.90;;;;;;5114763;28;19912;-39
2023/07/06 06:19:02;;;;;;;;;;;14.50;99.90;;;;;;5113973;28;19912;-39
2023/07/06 06:21:29;;;;;;;;;;;14.50;99.90;;;;;;5114272;28;19907;-39
2023/07/06 06:23:58;;;;;;;;;;;14.60;99.90;;;;;;5114411;28;20342;-39
2023/07/06 06:26:24;;;;;;;;;;;14.70;99.90;;;;;;5114351;28;19969;-40
2023/07/06 06:28:49;;;;;;;;;;;14.70;99.90;;;;;;5112192;28;19950;-40
2023/07/06 06:31:15;;;;;;;;;;;14.80;99.90;;;;;;5105268;28;19990;-39
2023/07/06 06:33:40;;;;;;;;;;;14.90;99.90;;;;;;5113232;28;19923;-40
2023/07/06 06:36:07;;;;;;;;;;;14.90;99.90;;;;;;5113923;28;19995;-39
2023/07/06 06:38:34;;;;;;;;;;;15.00;99.90;;;;;;5105528;28;20435;-40
2023/07/06 06:41:03;;;;;;;;;;;15.00;99.90;;;;;;5107017;28;20014;-40
2023/07/06 06:43:29;;;;;;;;;;;15.10;99.90;;;;;;5099207;28;19972;-39
2023/07/06 06:45:54;;;;;;;;;;;15.20;99.90;;;;;;5106427;28;19912;-39
2023/07/06 06:48:20;;;;;;;;;;;15.40;99.90;;;;;;5100652;28;20298;-40
2023/07/06 06:50:45;;;;;;;;;;;15.50;99.90;;;;;;5105886;28;19918;-39
2023/07/06 06:53:11;;;;;;;;;;;15.50;99.90;;;;;;5102977;28;19912;-40
2023/07/06 06:55:37;;;;;;;;;;;15.60;99.90;;;;;;5107272;28;20014;-40
2023/07/06 06:58:03;;;;;;;;;;;15.60;99.90;;;;;;5111327;28;20184;-40
2023/07/06 07:00:29;;;;;;;;;;;15.70;99.90;;;;;;5109596;28;19919;-39
2023/07/06 07:02:54;;;;;;;;;;;15.80;99.90;;;;;;5112041;28;19926;-39
2023/07/06 07:05:20;;;;;;;;;;;15.90;99.90;;;;;;5112155;28;19911;-39
2023/07/06 07:07:45;;;;;;;;;;;16.00;99.90;;;;;;5108989;28;19918;-39
2023/07/06 07:10:11;;;;;;;;;;;16.00;99.90;;;;;;5103906;28;19999;-39
2023/07/06 07:12:38;;;;;;;;;;;16.10;99.90;;;;;;5107760;28;19912;-39
2023/07/06 07:15:04;;;;;;;;;;;16.10;99.90;;;;;;5102239;28;19914;-40
2023/07/06 07:17:30;;;;;;;;;;;16.10;99.90;;;;;;5113517;28;20010;-39
2023/07/06 07:19:55;;;;;;;;;;;16.20;99.90;;;;;;5095688;28;20006;-40
2023/07/06 07:22:21;;;;;;;;;;;16.20;99.90;;;;;;5096122;28;19935;-40
2023/07/06 07:24:47;;;;;;;;;;;16.30;99.90;;;;;;5106374;28;19922;-39
2023/07/06 07:27:12;;;;;;;;;;;16.40;99.90;;;;;;5111420;28;19919;-39
2023/07/06 07:29:40;;;;;;;;;;;16.50;99.90;;;;;;5113021;28;19911;-40
2023/07/06 07:32:06;;;;;;;;;;;16.50;99.90;;;;;;5112646;28;19908;-39
2023/07/06 07:34:32;;;;;;;;;;;16.70;99.90;;;;;;5113587;27;19912;-39
2023/07/06 07:36:58;;;;;;;;;;;16.80;99.90;;;;;;5113131;28;19911;-40
2023/07/06 07:39:23;;;;;;;;;;;16.90;99.90;;;;;;5102272;28;20327;-40
2023/07/06 07:41:49;;;;;;;;;;;17.00;99.90;;;;;;5099851;28;19911;-39
2023/07/06 07:44:15;;;;;;;;;;;17.10;99.90;;;;;;5115794;28;20336;-39
2023/07/06 07:46:41;;;;;;;;;;;17.20;99.90;;;;;;5107888;28;19920;-39
2023/07/06 07:49:07;;;;;;;;;;;17.30;99.90;;;;;;5097642;27;20278;-40
2023/07/06 07:51:32;;;;;;;;;;;17.40;99.90;;;;;;5111972;28;20348;-39
2023/07/06 07:53:58;;;;;;;;;;;17.50;99.90;;;;;;5108405;28;20374;-40
2023/07/06 07:56:24;;;;;;;;;;;17.60;99.90;;;;;;5112565;28;19955;-41
2023/07/06 07:58:50;;;;;;;;;;;17.70;99.90;;;;;;5113802;28;19980;-41
2023/07/06 08:01:17;;;;;;;;;;;17.80;99.90;;;;;;5112922;28;20350;-40
2023/07/06 08:03:42;;;;;;;;;;;17.80;99.90;;;;;;5114079;28;20374;-39
2023/07/06 08:06:11;;;;;;;;;;;17.70;99.90;;;;;;5114156;28;19907;-39
2023/07/06 08:08:37;;;;;;;;;;;17.80;99.90;;;;;;5112661;28;19908;-40
2023/07/06 08:11:04;;;;;;;;;;;17.90;99.90;;;;;;5104728;28;19907;-39
2023/07/06 08:13:31;;;;;;;;;;;17.90;99.90;;;;;;5113471;28;19961;-39
2023/07/06 08:15:57;;;;;;;;;;;18.10;99.90;;;;;;5112693;28;19915;-39
2023/07/06 08:18:24;;;;;;;;;;;18.30;99.90;;;;;;5113372;28;19907;-39
2023/07/06 08:20:53;;;;;;;;;;;18.40;99.90;;;;;;5113827;27;19911;-39
2023/07/06 08:23:20;;;;;;;;;;;18.30;99.90;;;;;;5122482;27;19915;-39
2023/07/06 08:25:46;;;;;;;;;;;18.40;99.90;;;;;;5134610;27;19914;-40
2023/07/06 08:28:12;;;;;;;;;;;18.40;99.90;;;;;;5117359;28;19908;-39
2023/07/06 08:30:40;;;;;;;;;;;18.50;99.90;;;;;;5113910;28;19915;-40
2023/07/06 08:33:07;;;;;;;;;;;18.60;99.90;;;;;;5113861;28;19990;-40
2023/07/06 08:35:32;;;;;;;;;;;18.70;99.90;;;;;;5113337;28;19912;-39
2023/07/06 08:38:03;;;;;;;;;;;18.80;99.90;;;;;;5113792;28;19918;-42
2023/07/06 08:40:30;;;;;;;;;;;18.70;99.90;;;;;;5129493;28;19926;-39
2023/07/06 08:42:56;;;;;;;;;;;18.70;99.90;;;;;;5133800;28;19950;-40
2023/07/06 08:45:34;;;;;;;;;;;18.80;99.90;;;;;;5132216;28;20294;-40
2023/07/06 08:48:00;;;;;;;;;;;18.90;99.90;;;;;;5133135;28;19916;-39
2023/07/06 08:50:28;;;;;;;;;;;18.90;99.90;;;;;;5115511;28;19970;-39
2023/07/06 08:52:54;;;;;;;;;;;19.00;99.90;;;;;;5123603;28;20010;-39
2023/07/06 08:55:22;;;;;;;;;;;19.10;99.90;;;;;;5133068;27;20298;-40
2023/07/06 08:57:49;;;;;;;;;;;19.20;99.90;;;;;;5136937;27;20003;-39
2023/07/06 09:00:21;;;;;;;;;;;19.40;99.90;;;;;;5133568;27;19919;-40
2023/07/06 09:02:48;;;;;;;;;;;19.50;99.90;;;;;;5130005;27;19920;-40
2023/07/06 09:05:15;;;;;;;;;;;19.50;99.90;;;;;;5132196;27;19919;-39
2023/07/06 09:07:43;;;;;;;;;;;19.40;99.90;;;;;;5123199;27;19916;-40
2023/07/06 09:10:11;;;;;;;;;;;19.30;99.90;;;;;;5130274;27;19911;-39
2023/07/06 09:12:39;;;;;;;;;;;19.40;99.90;;;;;;5128633;27;20394;-39
2023/07/06 09:15:08;;;;;;;;;;;19.50;99.90;;;;;;5124490;27;19918;-40
2023/07/06 09:17:34;;;;;;;;;;;19.60;99.90;;;;;;5131050;27;19922;-39
2023/07/06 09:20:02;;;;;;;;;;;19.70;99.90;;;;;;5123548;27;19950;-39
2023/07/06 09:22:27;;;;;;;;;;;19.70;99.90;;;;;;5133086;27;19912;-39
2023/07/06 09:24:58;;;;;;;;;;;19.70;99.90;;;;;;5117283;27;19922;-39
2023/07/06 09:27:26;;;;;;;;;;;19.60;99.90;;;;;;5117075;28;19911;-39
2023/07/06 09:30:00;;;;;;;;;;;19.50;99.90;;;;;;5120326;27;19919;-40
2023/07/06 09:32:27;;;;;;;;;;;19.40;99.90;;;;;;5119480;27;19971;-40
2023/07/06 09:34:55;;;;;;;;;;;19.20;99.90;;;;;;5119947;27;19998;-40
2023/07/06 09:37:21;;;;;;;;;;;19.10;99.90;;;;;;5117498;27;19911;-40
2023/07/06 09:39:56;;;;;;;;;;;19.10;99.90;;;;;;5128872;27;19920;-40
2023/07/06 09:42:22;;;;;;;;;;;19.10;99.90;;;;;;5124877;27;20316;-39
2023/07/06 09:44:49;;;;;;;;;;;19.10;99.90;;;;;;5126235;27;19923;-39
2023/07/06 09:47:15;;;;;;;;;;;19.20;99.90;;;;;;5135787;27;19908;-39
2023/07/06 09:49:44;;;;;;;;;;;19.30;99.90;;;;;;5137566;27;19918;-39
2023/07/06 09:52:10;;;;;;;;;;;19.40;99.90;;;;;;5122204;27;19916;-40
2023/07/06 09:54:54;;;;;;;;;;;19.60;99.90;;;;;;5125409;27;19947;-39
2023/07/06 09:57:20;;;;;;;;;;;19.70;99.90;;;;;;5124807;27;20003;-39
2023/07/06 09:59:48;;;;;;;;;;;19.90;99.90;;;;;;5115278;27;19987;-39
2023/07/06 10:02:13;;;;;;;;;;;20.10;99.90;;;;;;5136036;27;19908;-39
2023/07/06 10:04:44;;;;;;;;;;;20.20;99.90;;;;;;5136449;27;19911;-39
2023/07/06 10:07:20;;;;;;;;;;;20.10;99.90;;;;;;5121688;27;19915;-39
2023/07/06 10:09:50;;;;;;;;;;;20.20;99.90;;;;;;5115967;28;19908;-39
2023/07/06 10:12:16;;;;;;;;;;;20.30;99.90;;;;;;5115677;28;20382;-40
2023/07/06 10:14:41;;;;;;;;;;;20.30;99.90;;;;;;5115094;28;20385;-39
2023/07/06 10:17:07;;;;;;;;;;;20.30;99.90;;;;;;5115658;28;19914;-39
2023/07/06 10:19:48;;;;;;;;;;;20.20;99.90;;;;;;5115669;28;19915;-38
2023/07/06 10:22:34;;;;;;;;;;;20.20;99.90;;;;;;5114739;28;19915;-39
2023/07/06 10:25:00;;;;;;;;;;;20.40;99.90;;;;;;5104331;28;19919;-39
2023/07/06 10:27:29;;;;;;;;;;;20.50;99.90;;;;;;5115441;28;19912;-40
2023/07/06 10:29:57;;;;;;;;;;;20.70;99.90;;;;;;5115680;27;19915;-40
2023/07/06 10:32:26;;;;;;;;;;;20.80;99.90;;;;;;5135493;27;19918;-40
2023/07/06 10:34:55;;;;;;;;;;;20.90;99.90;;;;;;5127158;27;20308;-39
2023/07/06 10:37:24;;;;;;;;;;;20.90;99.90;;;;;;5114330;27;19916;-39
2023/07/06 10:39:52;;;;;;;;;;;20.90;99.90;;;;;;5114765;27;19963;-40
2023/07/06 10:42:25;;;;;;;;;;;20.90;99.90;;;;;;5124237;27;20378;-39
2023/07/06 10:44:52;;;;;;;;;;;20.90;99.90;;;;;;5118657;27;20122;-39
2023/07/06 10:47:33;;;;;;;;;;;20.90;99.90;;;;;;5116582;27;19911;-39
2023/07/06 10:50:02;;;;;;;;;;;21.00;99.90;;;;;;5113191;27;19922;-40
2023/07/06 10:52:31;;;;;;;;;;;21.00;99.90;;;;;;5135055;27;19918;-39
2023/07/06 10:54:57;;;;;;;;;;;21.00;99.90;;;;;;5118302;27;19911;-39
2023/07/06 10:57:22;;;;;;;;;;;21.10;99.90;;;;;;5123850;27;19912;-40
2023/07/06 10:59:48;;;;;;;;;;;21.20;99.90;;;;;;5129196;27;19951;-39
2023/07/06 11:02:16;;;;;;;;;;;21.30;99.90;;;;;;5132001;27;19947;-40
2023/07/06 11:04:44;;;;;;;;;;;21.50;99.90;;;;;;5125987;27;20408;-40
2023/07/06 11:07:11;;;;;;;;;;;21.60;99.90;;;;;;5134331;27;19960;-40
2023/07/06 11:09:49;;;;;;;;;;;21.60;99.90;;;;;;5125246;27;19911;-40
2023/07/06 11:12:19;;;;;;;;;;;21.50;99.90;;;;;;5133278;27;19914;-39
2023/07/06 11:14:45;;;;;;;;;;;21.50;99.90;;;;;;5116790;27;19912;-40
2023/07/06 11:17:22;;;;;;;;;;;21.70;99.90;;;;;;5114364;27;19923;-39
2023/07/06 11:20:22;;;;;;;;;;;21.60;99.90;;;;;;5120711;27;20340;-40
2023/07/06 11:22:52;;;;;;;;;;;21.40;99.90;;;;;;5080621;27;19920;-40
2023/07/06 11:25:19;;;;;;;;;;;21.20;99.90;;;;;;5120419;27;19912;-40
2023/07/06 11:27:48;;;;;;;;;;;21.10;99.90;;;;;;5130174;27;20374;-40
2023/07/06 11:30:22;;;;;;;;;;;21.00;99.90;;;;;;5131345;27;19956;-41
2023/07/06 11:33:06;;;;;;;;;;;20.90;99.90;;;;;;5130548;27;20281;-40
2023/07/06 11:35:35;;;;;;;;;;;20.80;99.90;;;;;;5124169;27;19919;-40
2023/07/06 11:38:06;;;;;;;;;;;21.10;99.90;;;;;;5117621;27;19943;-40
2023/07/06 11:40:41;;;;;;;;;;;21.30;99.90;;;;;;5090066;27;1968305;-40
2023/07/06 11:43:26;;;;;;;;;;;21.60;99.90;;;;;;5158507;27;19921;-39
2023/07/06 11:45:58;;;;;;;;;;;21.70;99.90;;;;;;5159042;27;20002;-40
2023/07/06 11:48:50;;;;;;;;;;;21.60;99.90;;;;;;5158959;27;20419;-39
2023/07/06 11:51:18;;;;;;;;;;;21.50;99.90;;;;;;5116565;27;19915;-40
2023/07/06 11:53:54;;;;;;;;;;;21.50;99.90;;;;;;5144229;27;19913;-40
2023/07/06 11:56:35;;;;;;;;;;;21.40;99.90;;;;;;5139165;27;19911;-40
2023/07/06 11:59:04;;;;;;;;;;;21.50;99.90;;;;;;5150701;27;19957;-39
2023/07/06 12:01:42;;;;;;;;;;;21.50;99.90;;;;;;5143303;27;20378;-40
2023/07/06 12:04:29;;;;;;;;;;;21.60;99.90;;;;;;5164467;27;20267;-40
2023/07/06 12:06:56;;;;;;;;;;;21.70;99.90;;;;;;5158806;27;20024;-40
2023/07/06 12:09:23;;;;;;;;;;;21.80;99.90;;;;;;5166220;27;19915;-39
2023/07/06 12:12:05;;;;;;;;;;;22.00;99.90;;;;;;5156347;27;19911;-40
2023/07/06 12:14:32;;;;;;;;;;;22.30;99.90;;;;;;5154113;27;20373;-40
2023/07/06 12:16:58;;;;;;;;;;;22.40;99.90;;;;;;5150426;27;19955;-40
2023/07/06 12:19:24;;;;;;;;;;;22.50;99.90;;;;;;5141902;27;19926;-39
2023/07/06 12:21:56;;;;;;;;;;;22.60;99.90;;;;;;5161383;27;19907;-40
2023/07/06 12:24:23;;;;;;;;;;;22.60;99.90;;;;;;5148775;27;19911;-39
2023/07/06 12:26:50;;;;;;;;;;;22.70;99.90;;;;;;5139259;27;19925;-39
2023/07/06 12:29:17;;;;;;;;;;;22.50;99.90;;;;;;5148083;27;20292;-40
2023/07/06 12:31:44;;;;;;;;;;;22.30;99.90;;;;;;5140336;27;19912;-40
2023/07/06 12:34:13;;;;;;;;;;;22.30;99.90;;;;;;5144704;27;19918;-40
2023/07/06 12:36:42;;;;;;;;;;;22.40;99.90;;;;;;5138154;27;19912;-42
2023/07/06 12:39:09;;;;;;;;;;;22.50;99.90;;;;;;5160127;27;19923;-40
2023/07/06 12:41:35;;;;;;;;;;;22.50;99.90;;;;;;5162404;27;19911;-40
2023/07/06 12:44:01;;;;;;;;;;;22.30;99.90;;;;;;5149667;27;19912;-40
2023/07/06 12:46:31;;;;;;;;;;;22.20;99.90;;;;;;5135197;27;20038;-40
2023/07/06 12:48:59;;;;;;;;;;;22.30;99.90;;;;;;5148956;27;20360;-40
2023/07/06 12:51:25;;;;;;;;;;;22.70;99.90;;;;;;5138986;27;19944;-40
2023/07/06 12:53:51;;;;;;;;;;;22.90;99.80;;;;;;5135450;27;20634;-40
2023/07/06 12:56:19;;;;;;;;;;;23.30;99.90;;;;;;5135326;27;19918;-40
2023/07/06 12:58:59;;;;;;;;;;;23.40;99.90;;;;;;5119328;27;19916;-42
2023/07/06 13:01:35;;;;;;;;;;;23.30;98.60;;;;;;5121223;27;19918;-39
2023/07/06 13:04:10;;;;;;;;;;;23.20;99.50;;;;;;5135817;27;19912;-40
2023/07/06 13:06:52;;;;;;;;;;;22.80;99.90;;;;;;5130765;27;19920;-40
2023/07/06 13:09:31;;;;;;;;;;;22.60;99.90;;;;;;5155742;27;19911;-42
2023/07/06 13:12:09;;;;;;;;;;;22.40;99.90;;;;;;5126983;27;20010;-40
2023/07/06 13:14:38;;;;;;;;;;;22.30;99.90;;;;;;5123985;27;20436;-40
2023/07/06 13:17:06;;;;;;;;;;;22.20;99.90;;;;;;5142764;27;19994;-41
2023/07/06 13:19:34;;;;;;;;;;;22.00;99.90;;;;;;5133870;27;19923;-41
2023/07/06 13:22:00;;;;;;;;;;;21.80;99.90;;;;;;5133204;27;19912;-41
2023/07/06 13:24:28;;;;;;;;;;;21.70;99.90;;;;;;5115396;28;20378;-40
2023/07/06 13:26:53;;;;;;;;;;;21.70;99.90;;;;;;5116175;28;19912;-40
2023/07/06 13:29:19;;;;;;;;;;;21.70;99.90;;;;;;5115815;28;20721;-41
2023/07/06 13:31:46;;;;;;;;;;;21.90;99.90;;;;;;5115704;28;19908;-41
2023/07/06 13:34:12;;;;;;;;;;;22.10;99.90;;;;;;5119111;27;19911;-41
2023/07/06 13:36:37;;;;;;;;;;;22.40;99.90;;;;;;5136441;27;19913;-40
2023/07/06 13:39:06;;;;;;;;;;;22.60;99.90;;;;;;5135379;27;20037;-40
2023/07/06 13:41:34;;;;;;;;;;;22.80;99.90;;;;;;5136373;27;19907;-40
2023/07/06 13:44:00;;;;;;;;;;;22.90;99.90;;;;;;5136123;27;19907;-40
2023/07/06 13:46:26;;;;;;;;;;;23.00;99.90;;;;;;5135831;27;19907;-39
2023/07/06 13:48:52;;;;;;;;;;;22.70;99.70;;;;;;5141976;27;19918;-41
2023/07/06 13:51:17;;;;;;;;;;;22.60;99.90;;;;;;5156809;27;19914;-41
2023/07/06 13:53:47;;;;;;;;;;;22.80;99.90;;;;;;5156194;27;19907;-41
2023/07/06 13:56:15;;;;;;;;;;;23.30;99.90;;;;;;5156674;27;19994;-40
2023/07/06 13:58:43;;;;;;;;;;;23.70;99.90;;;;;;5155780;27;19963;-40
2023/07/06 14:01:12;;;;;;;;;;;24.10;99.90;;;;;;5156747;27;19919;-40
2023/07/06 14:03:39;;;;;;;;;;;24.30;99.90;;;;;;5155695;27;19975;-41
2023/07/06 14:06:05;;;;;;;;;;;24.60;99.70;;;;;;5156049;27;19914;-41
2023/07/06 14:08:32;;;;;;;;;;;24.90;99.90;;;;;;5156758;27;19989;-42
2023/07/06 14:10:58;;;;;;;;;;;25.10;99.20;;;;;;5156492;27;19997;-42
2023/07/06 14:13:24;;;;;;;;;;;24.80;98.70;;;;;;5155828;27;19942;-40
2023/07/06 14:15:50;;;;;;;;;;;24.40;97.30;;;;;;5141732;27;19911;-40
2023/07/06 14:18:16;;;;;;;;;;;24.10;99.90;;;;;;5133773;27;20305;-41
2023/07/06 14:20:42;;;;;;;;;;;24.00;98.50;;;;;;5155442;27;20421;-41